createdAt,value
2023-03-06T00:02:57.003Z,-89
2023-03-06T00:06:04.189Z,-88
2023-03-06T00:09:10.754Z,-90
2023-03-06T00:12:17.526Z,-91
2023-03-06T00:15:24.255Z,-91
2023-03-06T00:18:33.672Z,-90
2023-03-06T00:21:39.664Z,-91
2023-03-06T00:24:47.317Z,-93
2023-03-06T00:27:53.937Z,-92
2023-03-06T00:31:01.423Z,-93
2023-03-06T00:34:11.750Z,-92
2023-03-06T00:37:19.325Z,-93
2023-03-06T00:40:25.564Z,-93
2023-03-06T00:43:33.025Z,-92
2023-03-06T00:46:39.379Z,-92
2023-03-06T00:49:48.735Z,-92
2023-03-06T00:52:54.609Z,-93
2023-03-06T00:56:01.263Z,-92
2023-03-06T00:59:08.674Z,-92
2023-03-06T01:02:15.612Z,-93
2023-03-06T01:05:24.979Z,-92
2023-03-06T01:08:31.704Z,-92
2023-03-06T01:11:37.474Z,-94
2023-03-06T01:14:44.182Z,-93
2023-03-06T01:17:50.199Z,-93
2023-03-06T01:20:59.369Z,-92
2023-03-06T01:24:05.182Z,-92
2023-03-06T01:27:12.192Z,-92
2023-03-06T01:30:18.578Z,-93
2023-03-06T01:33:25.467Z,-93
2023-03-06T01:36:33.945Z,-91
2023-03-06T01:39:42.488Z,-92
2023-03-06T01:42:48.343Z,-92
2023-03-06T01:46:42.395Z,-89
2023-03-06T01:49:48.261Z,-91
2023-03-06T01:53:03.985Z,-92
2023-03-06T01:56:11.171Z,-92
2023-03-06T01:59:19.479Z,-92
2023-03-06T02:02:25.966Z,-92
2023-03-06T02:05:32.848Z,-92
2023-03-06T02:08:43.107Z,-93
2023-03-06T02:11:49.833Z,-93
2023-03-06T02:14:56.783Z,-92
2023-03-06T02:18:04.176Z,-93
2023-03-06T02:21:13.171Z,-92
2023-03-06T02:24:40.522Z,-92
2023-03-06T02:27:49.241Z,-91
2023-03-06T02:30:59.940Z,-90
2023-03-06T02:34:31.202Z,-90
2023-03-06T02:37:37.879Z,-91
2023-03-06T02:40:49.978Z,-92
2023-03-06T02:43:59.361Z,-91
2023-03-06T02:47:05.230Z,-91
2023-03-06T02:50:13.647Z,-91
2023-03-06T02:53:22.541Z,-92
2023-03-06T02:56:29.133Z,-92
2023-03-06T02:59:38.775Z,-92
2023-03-06T03:02:47.057Z,-91
2023-03-06T03:05:52.949Z,-88
2023-03-06T03:09:04.070Z,-90
2023-03-06T03:12:11.365Z,-91
2023-03-06T03:15:22.124Z,-91
2023-03-06T03:18:27.893Z,-91
2023-03-06T03:21:34.755Z,-90
2023-03-06T03:24:40.641Z,-91
2023-03-06T03:27:47.445Z,-90
2023-03-06T03:30:55.978Z,-92
2023-03-06T03:34:04.844Z,-92
2023-03-06T03:37:14.169Z,-93
2023-03-06T03:40:22.696Z,-93
2023-03-06T03:43:29.988Z,-92
2023-03-06T03:46:41.371Z,-90
2023-03-06T03:49:52.152Z,-91
2023-03-06T03:53:00.225Z,-94
2023-03-06T03:56:06.837Z,-91
2023-03-06T03:59:18.819Z,-91
2023-03-06T04:02:38.148Z,-92
2023-03-06T04:05:54.107Z,-93
2023-03-06T04:09:00.434Z,-93
2023-03-06T04:12:08.960Z,-93
2023-03-06T04:15:16.302Z,-90
2023-03-06T04:18:27.487Z,-93
2023-03-06T04:21:37.900Z,-93
2023-03-06T04:24:45.785Z,-93
2023-03-06T04:27:52.361Z,-91
2023-03-06T04:30:59.135Z,-93
2023-03-06T04:34:07.873Z,-92
2023-03-06T04:37:24.283Z,-93
2023-03-06T04:40:34.805Z,-92
2023-03-06T04:43:41.807Z,-94
2023-03-06T04:46:47.610Z,-91
2023-03-06T04:49:56.964Z,-90
2023-03-06T04:53:04.929Z,-91
2023-03-06T04:56:12.070Z,-92
2023-03-06T04:59:17.841Z,-91
2023-03-06T05:02:24.862Z,-90
2023-03-06T05:05:33.983Z,-92
2023-03-06T05:08:40.544Z,-89
2023-03-06T05:11:46.312Z,-91
2023-03-06T05:14:52.925Z,-93
2023-03-06T05:17:58.700Z,-93
2023-03-06T05:21:09.303Z,-92
2023-03-06T05:24:15.206Z,-90
2023-03-06T05:27:21.893Z,-91
2023-03-06T05:30:28.146Z,-87
2023-03-06T05:33:35.516Z,-90
2023-03-06T05:36:44.635Z,-90
2023-03-06T05:39:51.306Z,-90
2023-03-06T05:42:57.071Z,-91
2023-03-06T05:46:05.725Z,-88
2023-03-06T05:49:11.848Z,-89
2023-03-06T05:52:21.494Z,-91
2023-03-06T05:55:29.801Z,-89
2023-03-06T05:58:38.022Z,-90
2023-03-06T06:01:43.964Z,-90
2023-03-06T06:04:51.268Z,-89
2023-03-06T06:07:59.650Z,-92
2023-03-06T06:11:12.322Z,-88
2023-03-06T06:14:31.220Z,-79
2023-03-06T06:23:26.874Z,-78
2023-03-06T06:27:10.552Z,-80
2023-03-06T06:30:48.847Z,-78
2023-03-06T06:34:25.987Z,-80
2023-03-06T06:38:05.998Z,-78
2023-03-06T06:42:11.026Z,-84
2023-03-06T06:45:34.549Z,-76
2023-03-06T06:48:41.127Z,-76
2023-03-06T06:51:47.029Z,-77
2023-03-06T06:54:53.853Z,-77
2023-03-06T06:58:02.225Z,-77
2023-03-06T07:01:10.329Z,-77
2023-03-06T07:04:16.920Z,-76
2023-03-06T07:07:25.416Z,-76
2023-03-06T07:10:32.052Z,-76
2023-03-06T07:13:41.623Z,-77
2023-03-06T07:16:47.364Z,-77
2023-03-06T07:19:53.996Z,-76
2023-03-06T07:22:59.830Z,-77
2023-03-06T07:26:07.060Z,-76
2023-03-06T07:29:15.494Z,-76
2023-03-06T07:32:22.089Z,-75
2023-03-06T07:35:29.894Z,-76
2023-03-06T07:38:36.570Z,-76
2023-03-06T07:41:42.420Z,-75
2023-03-06T07:44:51.650Z,-75
2023-03-06T07:47:57.826Z,-75
2023-03-06T07:51:10.282Z,-76
2023-03-06T07:54:16.193Z,-77
2023-03-06T07:57:22.929Z,-77
2023-03-06T08:00:31.495Z,-76
2023-03-06T08:03:41.364Z,-75
2023-03-06T08:06:47.134Z,-75
2023-03-06T08:09:53.946Z,-75
2023-03-06T08:13:00.021Z,-75
2023-03-06T08:16:10.674Z,-75
2023-03-06T08:19:16.518Z,-75
2023-03-06T08:22:23.884Z,-75
2023-03-06T08:25:29.742Z,-76
2023-03-06T08:28:37.022Z,-75
2023-03-06T08:31:48.663Z,-75
2023-03-06T08:34:56.131Z,-75
2023-03-06T08:38:02.045Z,-75
2023-03-06T08:41:08.841Z,-76
2023-03-06T08:44:15.667Z,-75
2023-03-06T08:47:24.915Z,-76
2023-03-06T08:50:30.862Z,-76
2023-03-06T08:53:43.084Z,-76
2023-03-06T08:56:49.527Z,-77
2023-03-06T08:59:56.079Z,-76
2023-03-06T09:03:04.584Z,-76
2023-03-06T09:06:11.262Z,-76
2023-03-06T09:09:18.291Z,-76
2023-03-06T09:12:24.031Z,-76
2023-03-06T09:15:30.690Z,-76
2023-03-06T09:18:39.659Z,-77
2023-03-06T09:21:46.280Z,-75
2023-03-06T09:24:52.659Z,-77
2023-03-06T09:28:10.890Z,-76
2023-03-06T09:31:21.786Z,-76
2023-03-06T09:34:31.007Z,-75
2023-03-06T09:37:37.247Z,-76
2023-03-06T09:44:21.492Z,-75
2023-03-06T09:47:50.595Z,-76
2023-03-06T09:51:13.128Z,-75
2023-03-06T09:54:24.064Z,-76
2023-03-06T09:57:36.252Z,-76
2023-03-06T10:00:54.442Z,-76
2023-03-06T10:04:27.094Z,-76
2023-03-06T10:07:49.895Z,-75
2023-03-06T10:11:05.707Z,-76
2023-03-06T10:14:26.763Z,-76
2023-03-06T10:17:41.648Z,-75
2023-03-06T10:21:16.978Z,-75
2023-03-06T10:24:56.232Z,-76
2023-03-06T10:28:18.562Z,-75
2023-03-06T10:31:29.419Z,-75
2023-03-06T10:34:44.379Z,-75
2023-03-06T10:37:51.902Z,-76
2023-03-06T10:41:19.609Z,-75
2023-03-06T10:44:29.110Z,-76
2023-03-06T10:47:37.765Z,-75
2023-03-06T10:50:43.771Z,-76
2023-03-06T10:53:58.996Z,-75
2023-03-06T10:57:32.891Z,-76
2023-03-06T11:00:39.679Z,-75
2023-03-06T11:03:45.706Z,-76
2023-03-06T11:07:08.480Z,-75
2023-03-06T11:10:23.832Z,-75
2023-03-06T11:13:36.178Z,-76
2023-03-06T11:16:42.746Z,-75
2023-03-06T11:19:49.417Z,-74
2023-03-06T11:23:03.209Z,-76
2023-03-06T11:26:32.596Z,-75
2023-03-06T11:29:46.294Z,-75
2023-03-06T11:33:02.026Z,-76
2023-03-06T11:36:21.553Z,-74
2023-03-06T11:39:39.836Z,-76
2023-03-06T11:42:59.102Z,-74
2023-03-06T11:46:22.977Z,-75
2023-03-06T11:49:41.479Z,-76
2023-03-06T11:52:56.743Z,-76
2023-03-06T11:56:23.025Z,-76
2023-03-06T12:00:24.301Z,-76
2023-03-06T12:04:16.753Z,-75
2023-03-06T12:07:35.085Z,-76
2023-03-06T12:10:52.441Z,-76
2023-03-06T12:14:25.887Z,-77
2023-03-06T12:17:57.857Z,-76
2023-03-06T12:21:23.375Z,-76
2023-03-06T12:25:21.294Z,-76
2023-03-06T12:29:05.608Z,-76
2023-03-06T12:32:30.651Z,-76
2023-03-06T12:36:17.114Z,-76
2023-03-06T12:39:45.047Z,-76
2023-03-06T12:43:40.587Z,-76
2023-03-06T12:46:54.888Z,-76
2023-03-06T12:50:10.471Z,-76
2023-03-06T12:53:30.500Z,-75
2023-03-06T12:56:38.758Z,-75
2023-03-06T12:59:48.837Z,-76
2023-03-06T13:03:21.589Z,-76
2023-03-06T13:07:05.688Z,-75
2023-03-06T13:10:25.668Z,-75
2023-03-06T13:13:37.227Z,-76
2023-03-06T13:16:43.898Z,-75
2023-03-06T13:19:50.902Z,-76
2023-03-06T13:22:57.836Z,-76
2023-03-06T13:26:12.783Z,-76
2023-03-06T13:29:55.762Z,-76
2023-03-06T13:33:01.639Z,-76
2023-03-06T13:36:27.096Z,-76
2023-03-06T13:40:29.625Z,-75
2023-03-06T13:43:45.665Z,-76
2023-03-06T13:47:02.740Z,-75
2023-03-06T13:50:38.382Z,-76
2023-03-06T13:54:30.742Z,-76
2023-03-06T13:58:04.076Z,-77
2023-03-06T14:01:43.070Z,-77
2023-03-06T14:05:00.743Z,-77
2023-03-06T14:08:17.564Z,-76
2023-03-06T14:11:25.026Z,-75
2023-03-06T14:14:45.442Z,-75
2023-03-06T14:18:03.433Z,-75
2023-03-06T14:21:15.990Z,-75
2023-03-06T14:24:34.562Z,-76
2023-03-06T14:27:56.325Z,-75
2023-03-06T14:31:08.849Z,-76
2023-03-06T14:34:26.758Z,-75
2023-03-06T14:37:35.094Z,-76
2023-03-06T14:40:48.624Z,-77
2023-03-06T14:44:10.022Z,-76
2023-03-06T14:47:28.722Z,-76
2023-03-06T14:50:41.021Z,-76
2023-03-06T14:53:49.847Z,-76
2023-03-06T14:57:06.144Z,-76
2023-03-06T15:00:24.199Z,-76
2023-03-06T15:03:45.416Z,-76
2023-03-06T15:06:56.925Z,-76
2023-03-06T15:10:10.535Z,-76
2023-03-06T15:13:26.268Z,-76
2023-03-06T15:16:34.973Z,-76
2023-03-06T15:19:43.380Z,-76
2023-03-06T15:22:54.165Z,-76
2023-03-06T15:26:03.898Z,-77
2023-03-06T15:29:26.665Z,-78
2023-03-06T15:32:42.619Z,-77
2023-03-06T15:35:58.924Z,-77
2023-03-06T15:39:41.354Z,-76
2023-03-06T15:42:50.120Z,-76
2023-03-06T15:46:03.580Z,-75
2023-03-06T15:49:20.768Z,-77
2023-03-06T15:52:27.536Z,-77
2023-03-06T15:55:36.885Z,-76
2023-03-06T15:58:44.777Z,-76
2023-03-06T16:01:53.244Z,-76
2023-03-06T16:05:02.558Z,-76
2023-03-06T16:08:11.030Z,-77
2023-03-06T16:11:35.340Z,-76
2023-03-06T16:14:50.757Z,-76
2023-03-06T16:17:56.747Z,-77
2023-03-06T16:21:03.597Z,-77
2023-03-06T16:24:09.865Z,-77
2023-03-06T16:27:25.719Z,-76
2023-03-06T16:30:35.704Z,-77
2023-03-06T16:33:42.596Z,-76
2023-03-06T16:36:50.299Z,-76
2023-03-06T16:39:56.840Z,-76
2023-03-06T16:43:05.278Z,-76
2023-03-06T16:46:20.612Z,-77
2023-03-06T16:49:27.953Z,-76
2023-03-06T16:52:34.871Z,-76
2023-03-06T16:55:40.808Z,-76
2023-03-06T16:58:52.023Z,-76
2023-03-06T17:01:57.855Z,-76
2023-03-06T17:05:04.644Z,-75
2023-03-06T17:08:10.670Z,-76
2023-03-06T17:11:18.118Z,-76
2023-03-06T17:14:26.591Z,-76
2023-03-06T17:17:33.237Z,-76
2023-03-06T17:20:39.085Z,-76
2023-03-06T17:23:47.042Z,-77
2023-03-06T17:26:53.048Z,-77
2023-03-06T17:30:04.480Z,-77
2023-03-06T17:33:10.312Z,-77
2023-03-06T17:36:19.548Z,-77
2023-03-06T17:39:26.027Z,-77
2023-03-06T17:42:32.689Z,-77
2023-03-06T17:45:41.999Z,-76
2023-03-06T17:48:49.655Z,-77
2023-03-06T17:51:56.640Z,-76
2023-03-06T17:55:03.203Z,-77
2023-03-06T18:01:21.641Z,-70
2023-03-06T18:04:28.661Z,-71
2023-03-06T18:07:34.476Z,-71
2023-03-06T18:10:43.514Z,-72
2023-03-06T18:13:49.323Z,-70
2023-03-06T18:16:58.508Z,-73
2023-03-06T18:20:04.627Z,-71
2023-03-06T18:23:11.903Z,-71
2023-03-06T18:26:21.007Z,-71
2023-03-06T18:29:27.711Z,-71
2023-03-06T18:32:36.212Z,-71
2023-03-06T18:35:44.214Z,-72
2023-03-06T18:38:50.190Z,-72
2023-03-06T18:41:56.896Z,-71
2023-03-06T18:45:03.236Z,-71
2023-03-06T18:48:12.575Z,-70
2023-03-06T18:51:20.376Z,-70
2023-03-06T18:54:28.748Z,-72
2023-03-06T18:57:34.595Z,-71
2023-03-06T19:00:41.218Z,-71
2023-03-06T19:03:53.133Z,-70
2023-03-06T19:06:59.845Z,-71
2023-03-06T19:10:06.149Z,-70
2023-03-06T19:13:14.225Z,-71
2023-03-06T19:16:23.266Z,-71
2023-03-06T19:19:32.721Z,-70
2023-03-06T19:22:38.601Z,-70
2023-03-06T19:25:45.437Z,-68
2023-03-06T19:28:56.570Z,-70
2023-03-06T19:32:04.428Z,-70
2023-03-06T19:35:13.850Z,-68
2023-03-06T19:38:21.026Z,-69
2023-03-06T19:41:28.157Z,-68
2023-03-06T19:44:35.692Z,-69
2023-03-06T19:47:41.682Z,-68
2023-03-06T19:50:52.464Z,-69
2023-03-06T19:53:59.817Z,-68
2023-03-06T19:57:06.870Z,-69
2023-03-06T20:00:16.228Z,-69
2023-03-06T20:03:22.863Z,-69
2023-03-06T20:06:36.809Z,-68
2023-03-06T20:09:44.025Z,-68
2023-03-06T20:12:55.144Z,-69
2023-03-06T20:16:06.292Z,-68
2023-03-06T20:19:13.924Z,-67
2023-03-06T20:22:23.598Z,-68
2023-03-06T20:25:29.989Z,-68
2023-03-06T20:28:38.077Z,-68
2023-03-06T20:31:45.627Z,-68
2023-03-06T20:34:55.369Z,-69
2023-03-06T20:38:04.151Z,-71
2023-03-06T20:41:18.573Z,-68
2023-03-06T20:44:24.405Z,-68
2023-03-06T20:47:32.883Z,-69
2023-03-06T20:50:39.022Z,-69
2023-03-06T20:53:50.838Z,-69
2023-03-06T20:56:58.235Z,-69
2023-03-06T21:00:05.412Z,-68
2023-03-06T21:03:11.355Z,-68
2023-03-06T21:06:18.907Z,-69
2023-03-06T21:09:27.268Z,-68
2023-03-06T21:12:36.429Z,-69
2023-03-06T21:15:42.702Z,-68
2023-03-06T21:18:50.277Z,-68
2023-03-06T21:21:56.328Z,-68
2023-03-06T21:25:05.558Z,-69
2023-03-06T21:28:11.307Z,-70
2023-03-06T21:31:22.197Z,-68
2023-03-06T21:34:28.347Z,-69
2023-03-06T21:37:35.283Z,-69
2023-03-06T21:40:45.525Z,-68
2023-03-06T21:43:52.106Z,-69
2023-03-06T21:46:57.796Z,-69
2023-03-06T21:50:04.352Z,-69
2023-03-06T21:53:12.463Z,-69
2023-03-06T21:56:25.486Z,-68
2023-03-06T21:59:31.425Z,-69
2023-03-06T22:02:38.500Z,-68
2023-03-06T22:05:44.786Z,-69
2023-03-06T22:08:51.855Z,-68
2023-03-06T22:12:00.393Z,-69
2023-03-06T22:15:09.560Z,-68
2023-03-06T22:18:16.054Z,-67
2023-03-06T22:21:26.057Z,-69
2023-03-06T22:24:31.881Z,-68
2023-03-06T22:27:41.152Z,-68
2023-03-06T22:30:46.891Z,-68
2023-03-06T22:33:55.343Z,-69
2023-03-06T22:37:01.328Z,-68
2023-03-06T22:40:09.809Z,-69
2023-03-06T22:43:20.164Z,-68
2023-03-06T22:46:27.974Z,-69
2023-03-06T22:49:33.818Z,-72
2023-03-06T22:52:40.460Z,-70
2023-03-06T22:55:46.272Z,-71
2023-03-06T22:58:55.585Z,-73
2023-03-06T23:02:01.441Z,-70
2023-03-06T23:05:09.833Z,-71
2023-03-06T23:08:17.307Z,-70
2023-03-06T23:11:26.001Z,-71
2023-03-06T23:14:53.182Z,-70
2023-03-06T23:18:18.213Z,-71
2023-03-06T23:21:43.028Z,-71
2023-03-06T23:25:09.745Z,-70
2023-03-06T23:28:15.801Z,-70
2023-03-06T23:31:28.737Z,-71
2023-03-06T23:34:34.746Z,-71
2023-03-06T23:37:42.830Z,-70
2023-03-06T23:40:49.755Z,-71
2023-03-06T23:43:56.642Z,-71
2023-03-06T23:47:05.651Z,-72
2023-03-06T23:50:14.203Z,-70
2023-03-06T23:53:20.645Z,-70
2023-03-06T23:56:27.920Z,-70
2023-03-06T23:59:33.764Z,-70
